createdAt,value
2022-11-03T00:01:10.016Z,26.67
2022-11-03T00:03:37.184Z,26.17
2022-11-03T00:06:06.743Z,25.20
2022-11-03T00:08:33.820Z,24.63
2022-11-03T00:11:06.569Z,25.40
2022-11-03T00:13:33.095Z,25.43
2022-11-03T00:15:59.572Z,25.23
2022-11-03T00:18:26.136Z,24.90
2022-11-03T00:20:59.513Z,24.60
2022-11-03T00:23:27.656Z,24.40
2022-11-03T00:25:54.200Z,25.47
2022-11-03T00:28:20.671Z,24.80
2022-11-03T00:30:47.116Z,25.70
2022-11-03T00:33:13.578Z,24.07
2022-11-03T00:35:40.369Z,24.20
2022-11-03T00:38:07.379Z,23.83
2022-11-03T00:40:33.809Z,22.37
2022-11-03T00:43:00.370Z,23.87
2022-11-03T00:45:26.804Z,22.97
2022-11-03T00:48:14.613Z,22.37
2022-11-03T00:50:41.364Z,21.70
2022-11-03T00:53:08.230Z,21.87
2022-11-03T00:55:34.842Z,20.83
2022-11-03T00:58:01.248Z,20.40
2022-11-03T01:00:27.725Z,21.87
2022-11-03T01:02:54.176Z,21.20
2022-11-03T01:05:56.131Z,22.07
2022-11-03T01:08:26.580Z,21.17
2022-11-03T01:11:13.142Z,19.57
2022-11-03T01:13:39.603Z,19.80
2022-11-03T01:16:06.176Z,21.50
2022-11-03T01:18:32.665Z,21.67
2022-11-03T01:20:59.140Z,20.47
2022-11-03T01:23:25.645Z,20.37
2022-11-03T01:25:52.183Z,20.17
2022-11-03T01:28:18.677Z,20.03
2022-11-03T01:30:45.169Z,20.10
2022-11-03T01:33:11.731Z,19.67
2022-11-03T01:35:38.214Z,20.10
2022-11-03T01:38:04.649Z,20.10
2022-11-03T01:40:32.058Z,20.70
2022-11-03T01:43:14.430Z,19.40
2022-11-03T01:45:40.931Z,21.10
2022-11-03T01:48:08.156Z,20.70
2022-11-03T01:50:35.079Z,19.30
2022-11-03T01:53:01.591Z,19.33
2022-11-03T01:55:28.885Z,20.40
2022-11-03T01:58:02.957Z,20.80
2022-11-03T02:00:29.404Z,18.80
2022-11-03T02:02:55.876Z,20.40
2022-11-03T02:05:22.821Z,20.60
2022-11-03T02:08:01.574Z,21.83
2022-11-03T02:10:28.067Z,22.03
2022-11-03T02:12:54.555Z,23.97
2022-11-03T02:15:21.839Z,23.13
2022-11-03T02:17:48.333Z,21.77
2022-11-03T02:20:19.151Z,22.27
2022-11-03T02:23:06.294Z,22.20
2022-11-03T02:25:36.046Z,22.30
2022-11-03T02:28:02.972Z,23.03
2022-11-03T02:30:30.741Z,21.53
2022-11-03T02:32:57.843Z,22.47
2022-11-03T02:35:24.409Z,24.27
2022-11-03T02:37:51.852Z,24.33
2022-11-03T02:40:20.015Z,24.13
2022-11-03T02:42:47.420Z,21.53
2022-11-03T02:45:17.365Z,22.60
2022-11-03T02:47:44.173Z,21.70
2022-11-03T02:50:10.686Z,23.00
2022-11-03T02:52:44.123Z,20.10
2022-11-03T02:55:29.319Z,22.40
2022-11-03T02:58:11.881Z,24.03
2022-11-03T03:01:01.671Z,22.03
2022-11-03T03:03:29.312Z,21.97
2022-11-03T03:05:57.497Z,24.83
2022-11-03T03:08:23.955Z,23.77
2022-11-03T03:10:50.507Z,23.37
2022-11-03T03:13:17.436Z,21.77
2022-11-03T03:15:55.140Z,22.27
2022-11-03T03:18:26.790Z,22.63
2022-11-03T03:21:08.052Z,24.27
2022-11-03T03:23:35.744Z,25.43
2022-11-03T03:26:03.880Z,25.17
2022-11-03T03:28:32.664Z,25.13
2022-11-03T03:30:59.961Z,24.60
2022-11-03T03:35:52.941Z,24.97
2022-11-03T03:38:22.040Z,25.37
2022-11-03T03:40:49.202Z,23.87
2022-11-03T03:43:15.702Z,24.47
2022-11-03T03:45:42.986Z,23.37
2022-11-03T03:48:10.125Z,23.67
2022-11-03T03:50:37.434Z,22.53
2022-11-03T03:53:07.472Z,22.17
2022-11-03T03:55:37.576Z,22.77
2022-11-03T03:58:04.464Z,22.70
2022-11-03T04:00:31.321Z,22.17
2022-11-03T04:02:58.739Z,21.20
2022-11-03T04:05:25.991Z,22.60
2022-11-03T04:07:52.597Z,22.93
2022-11-03T04:10:20.136Z,22.30
2022-11-03T04:13:05.411Z,23.80
2022-11-03T04:15:50.684Z,22.40
2022-11-03T04:18:49.531Z,22.67
2022-11-03T04:21:34.763Z,21.60
2022-11-03T04:24:01.282Z,22.60
2022-11-03T04:26:28.114Z,22.87
2022-11-03T04:28:54.887Z,25.23
2022-11-03T04:31:21.440Z,22.87
2022-11-03T04:33:48.145Z,21.77
2022-11-03T04:36:24.138Z,23.07
2022-11-03T04:38:50.799Z,22.50
2022-11-03T04:41:17.553Z,23.53
2022-11-03T04:43:44.465Z,21.83
2022-11-03T04:46:11.548Z,21.60
2022-11-03T04:48:38.101Z,21.77
2022-11-03T04:51:11.293Z,22.37
2022-11-03T04:53:37.774Z,21.40
2022-11-03T04:56:08.753Z,23.40
2022-11-03T04:58:35.722Z,22.10
2022-11-03T05:01:03.056Z,23.07
2022-11-03T05:03:30.591Z,23.63
2022-11-03T05:05:57.403Z,22.97
2022-11-03T05:08:23.897Z,23.60
2022-11-03T05:10:50.409Z,25.63
2022-11-03T05:13:26.638Z,24.80
2022-11-03T05:15:53.536Z,26.70
2022-11-03T05:18:20.685Z,27.73
2022-11-03T05:20:50.467Z,29.17
2022-11-03T05:23:17.640Z,28.17
2022-11-03T05:25:44.802Z,28.27
2022-11-03T05:28:20.816Z,27.00
2022-11-03T05:30:47.981Z,25.60
2022-11-03T05:33:30.941Z,25.60
2022-11-03T05:35:58.266Z,24.77
2022-11-03T05:38:24.779Z,25.63
2022-11-03T05:40:54.326Z,25.63
2022-11-03T05:43:20.797Z,24.47
2022-11-03T05:45:48.126Z,24.67
2022-11-03T05:48:30.377Z,25.43
2022-11-03T05:51:00.373Z,26.47
2022-11-03T05:53:29.023Z,25.77
2022-11-03T05:55:55.827Z,24.77
2022-11-03T05:58:24.354Z,27.73
2022-11-03T06:00:50.827Z,27.13
2022-11-03T06:03:19.659Z,27.87
2022-11-03T06:05:46.602Z,27.67
2022-11-03T06:08:13.868Z,29.30
2022-11-03T06:10:41.493Z,27.87
2022-11-03T06:13:11.763Z,28.13
2022-11-03T06:15:38.217Z,27.27
2022-11-03T06:18:12.215Z,27.67
2022-11-03T06:20:39.461Z,28.13
2022-11-03T06:23:06.191Z,26.63
2022-11-03T06:25:36.566Z,26.57
2022-11-03T06:28:06.533Z,25.27
2022-11-03T06:30:33.578Z,25.93
2022-11-03T06:33:19.087Z,26.17
2022-11-03T06:35:45.541Z,25.23
2022-11-03T06:38:19.524Z,25.37
2022-11-03T06:40:46.476Z,25.20
2022-11-03T06:43:19.483Z,23.90
2022-11-03T06:45:50.629Z,24.07
2022-11-03T06:48:22.491Z,25.07
2022-11-03T06:50:48.913Z,24.77
2022-11-03T06:53:19.576Z,26.30
2022-11-03T06:55:47.277Z,25.70
2022-11-03T06:58:15.369Z,22.87
2022-11-03T07:00:45.892Z,25.90
2022-11-03T07:03:15.632Z,25.40
2022-11-03T07:05:42.057Z,23.63
2022-11-03T07:08:19.181Z,22.10
2022-11-03T07:10:49.095Z,23.63
2022-11-03T07:13:20.113Z,24.27
2022-11-03T07:15:46.596Z,22.70
2022-11-03T07:18:18.876Z,23.40
2022-11-03T07:20:45.415Z,23.87
2022-11-03T07:23:13.279Z,23.60
2022-11-03T07:25:39.876Z,22.43
2022-11-03T07:28:06.655Z,22.57
2022-11-03T07:30:33.926Z,21.87
2022-11-03T07:33:11.095Z,21.90
2022-11-03T07:36:00.831Z,21.47
2022-11-03T07:38:24.627Z,22.97
2022-11-03T07:40:51.193Z,23.23
2022-11-03T07:43:25.299Z,24.53
2022-11-03T07:45:59.204Z,27.57
2022-11-03T07:48:25.767Z,27.63
2022-11-03T07:50:53.192Z,26.57
2022-11-03T07:53:24.794Z,24.23
2022-11-03T07:55:52.993Z,24.53
2022-11-03T07:58:38.699Z,20.50
2022-11-03T08:01:16.088Z,20.57
2022-11-03T08:03:44.795Z,20.17
2022-11-03T08:06:11.795Z,19.27
2022-11-03T08:08:39.978Z,20.40
2022-11-03T08:11:06.827Z,19.87
2022-11-03T08:13:33.414Z,18.83
2022-11-03T08:15:59.978Z,18.93
2022-11-03T08:18:26.437Z,18.50
2022-11-03T08:20:52.916Z,15.87
2022-11-03T08:23:25.625Z,15.83
2022-11-03T08:25:52.794Z,16.47
2022-11-03T08:28:19.487Z,16.63
2022-11-03T08:30:45.892Z,15.33
2022-11-03T08:33:12.351Z,16.13
2022-11-03T08:35:39.481Z,14.67
2022-11-03T08:38:06.454Z,11.57
2022-11-03T08:40:33.177Z,11.67
2022-11-03T08:43:03.002Z,10.90
2022-11-03T08:45:30.194Z,10.90
2022-11-03T08:47:56.813Z,9.70
2022-11-03T08:50:23.592Z,9.43
2022-11-03T08:52:50.198Z,8.83
2022-11-03T08:55:16.795Z,7.93
2022-11-03T08:57:43.520Z,6.30
2022-11-03T09:00:10.395Z,7.37
2022-11-03T09:02:36.849Z,6.13
2022-11-03T09:05:04.797Z,6.00
2022-11-03T09:12:49.600Z,5.80
2022-11-03T09:15:16.050Z,5.13
2022-11-03T09:17:44.777Z,5.27
2022-11-03T09:20:12.500Z,4.60
2022-11-03T09:22:39.287Z,3.87
2022-11-03T09:25:06.031Z,4.23
2022-11-03T09:27:32.549Z,4.00
2022-11-03T09:30:12.771Z,3.87
2022-11-03T09:32:40.511Z,3.90
2022-11-03T09:35:08.049Z,5.03
2022-11-03T09:37:34.571Z,4.37
2022-11-03T09:40:01.191Z,4.03
2022-11-03T09:42:27.761Z,3.83
2022-11-03T09:44:54.475Z,4.47
2022-11-03T09:47:45.981Z,3.60
2022-11-03T09:50:16.906Z,3.57
2022-11-03T09:52:47.358Z,3.20
2022-11-03T09:55:18.143Z,3.80
2022-11-03T09:57:45.464Z,3.97
2022-11-03T10:00:30.279Z,3.90
2022-11-03T10:02:56.843Z,2.67
2022-11-03T10:05:26.543Z,2.63
2022-11-03T10:10:40.365Z,3.10
2022-11-03T10:13:12.518Z,3.07
2022-11-03T10:15:39.700Z,3.03
2022-11-03T10:18:06.460Z,2.83
2022-11-03T10:20:32.897Z,2.40
2022-11-03T10:22:59.435Z,2.13
2022-11-03T10:25:28.689Z,2.10
2022-11-03T10:28:15.561Z,2.57
2022-11-03T10:31:11.298Z,2.30
2022-11-03T10:33:38.676Z,2.80
2022-11-03T10:36:25.534Z,1.83
2022-11-03T10:38:52.070Z,2.00
2022-11-03T10:41:22.488Z,1.43
2022-11-03T10:44:05.896Z,1.30
2022-11-03T10:49:19.763Z,1.67
2022-11-03T10:51:50.583Z,1.87
2022-11-03T10:54:17.429Z,1.57
2022-11-03T10:56:44.061Z,2.60
2022-11-03T10:59:20.642Z,2.23
2022-11-03T11:01:47.358Z,2.17
2022-11-03T11:04:17.654Z,2.17
2022-11-03T11:06:44.270Z,2.30
2022-11-03T11:09:11.949Z,2.30
2022-11-03T11:11:38.599Z,2.50
2022-11-03T11:14:24.103Z,1.80
2022-11-03T11:16:50.918Z,2.00
2022-11-03T11:19:17.490Z,2.03
2022-11-03T11:21:43.934Z,2.20
2022-11-03T11:24:10.752Z,2.78
2022-11-03T11:26:37.575Z,2.40
2022-11-03T11:29:10.314Z,2.15
2022-11-03T11:31:37.216Z,2.03
2022-11-03T11:34:09.915Z,1.80
2022-11-03T11:36:36.833Z,1.50
2022-11-03T11:39:04.060Z,2.30
2022-11-03T11:41:49.193Z,2.65
2022-11-03T11:44:34.543Z,2.10
2022-11-03T11:47:01.211Z,1.40
2022-11-03T11:49:27.714Z,1.33
2022-11-03T11:51:54.253Z,1.30
2022-11-03T11:54:20.711Z,1.40
2022-11-03T11:56:47.756Z,1.10
2022-11-03T11:59:32.318Z,1.40
2022-11-03T12:01:58.967Z,1.30
2022-11-03T12:04:26.927Z,1.30
2022-11-03T12:06:53.571Z,0.90
2022-11-03T12:09:20.876Z,1.30
2022-11-03T12:11:49.245Z,1.17
2022-11-03T12:14:30.730Z,1.20
2022-11-03T12:17:15.993Z,1.08
2022-11-03T12:19:44.416Z,0.88
2022-11-03T12:22:23.204Z,1.08
2022-11-03T12:24:53.492Z,1.17
2022-11-03T12:27:40.863Z,1.00
2022-11-03T12:30:17.408Z,1.05
2022-11-03T12:32:43.927Z,1.20
2022-11-03T12:35:10.424Z,1.10
2022-11-03T12:37:37.496Z,0.70
2022-11-03T12:40:04.161Z,1.00
2022-11-03T12:42:30.689Z,1.05
2022-11-03T12:44:57.144Z,1.38
2022-11-03T12:47:23.770Z,1.23
2022-11-03T12:49:50.286Z,1.10
2022-11-03T12:52:16.860Z,1.02
2022-11-03T12:54:43.366Z,0.95
2022-11-03T12:57:09.906Z,0.93
2022-11-03T12:59:36.380Z,1.30
2022-11-03T13:02:02.984Z,1.10
2022-11-03T13:04:29.540Z,1.67
2022-11-03T13:06:55.993Z,1.77
2022-11-03T13:09:22.511Z,1.33
2022-11-03T13:12:07.545Z,1.58
2022-11-03T13:14:34.014Z,1.73
2022-11-03T13:17:00.646Z,2.05
2022-11-03T13:19:27.971Z,1.95
2022-11-03T13:21:54.439Z,2.00
2022-11-03T13:24:20.893Z,1.70
2022-11-03T13:26:47.370Z,2.15
2022-11-03T13:29:13.828Z,1.85
2022-11-03T13:31:40.363Z,2.03
2022-11-03T13:34:06.910Z,2.03
2022-11-03T13:36:33.406Z,2.20
2022-11-03T13:38:59.931Z,1.92
2022-11-03T13:41:26.354Z,1.83
2022-11-03T13:43:52.795Z,2.15
2022-11-03T13:46:19.230Z,1.83
2022-11-03T13:49:44.677Z,2.30
2022-11-03T13:51:32.342Z,2.08
2022-11-03T13:59:31.762Z,2.08
2022-11-03T14:04:45.144Z,2.28
2022-11-03T14:07:11.774Z,2.22
2022-11-03T14:09:38.521Z,1.85
2022-11-03T14:12:23.986Z,2.20
2022-11-03T14:14:50.481Z,2.03
2022-11-03T14:17:16.955Z,2.28
2022-11-03T14:19:48.691Z,2.42
2022-11-03T14:22:18.517Z,2.03
2022-11-03T14:24:45.506Z,1.85
2022-11-03T14:27:12.997Z,2.10
2022-11-03T14:29:39.484Z,2.00
2022-11-03T14:32:06.389Z,2.63
2022-11-03T14:34:32.921Z,2.45
2022-11-03T14:36:59.573Z,2.03
2022-11-03T14:39:26.436Z,2.22
2022-11-03T14:42:05.194Z,2.20
2022-11-03T14:44:38.684Z,2.08
2022-11-03T14:47:06.135Z,2.25
2022-11-03T14:49:33.051Z,2.47
2022-11-03T14:51:59.881Z,2.35
2022-11-03T14:54:26.452Z,2.55
2022-11-03T14:56:53.882Z,2.72
2022-11-03T14:59:20.633Z,2.33
2022-11-03T15:01:47.570Z,3.55
2022-11-03T15:04:14.248Z,2.90
2022-11-03T15:06:41.029Z,2.90
2022-11-03T15:11:35.347Z,2.90
2022-11-03T15:14:02.766Z,3.03
2022-11-03T15:16:29.425Z,3.90
2022-11-03T15:18:55.906Z,3.30
2022-11-03T15:21:22.354Z,3.60
2022-11-03T15:26:35.360Z,2.80
2022-11-03T15:29:01.849Z,3.00
2022-11-03T15:31:28.374Z,3.03
2022-11-03T15:33:54.847Z,3.42
2022-11-03T15:36:22.242Z,2.90
2022-11-03T15:38:48.694Z,3.23
2022-11-03T15:41:19.450Z,3.50
2022-11-03T15:43:46.872Z,3.28
2022-11-03T15:46:14.155Z,3.08
2022-11-03T15:48:40.801Z,3.63
2022-11-03T15:51:07.315Z,3.75
2022-11-03T15:53:33.799Z,3.83
2022-11-03T15:56:00.380Z,3.55
2022-11-03T15:58:26.922Z,3.85
2022-11-03T16:00:53.461Z,2.93
2022-11-03T16:03:20.018Z,3.13
2022-11-03T16:05:46.667Z,3.22
2022-11-03T16:08:14.327Z,4.28
2022-11-03T16:10:47.960Z,4.03
2022-11-03T16:13:17.278Z,3.23
2022-11-03T16:15:43.704Z,3.40
2022-11-03T16:18:10.525Z,4.27
2022-11-03T16:20:37.177Z,4.43
2022-11-03T16:23:03.628Z,4.53
2022-11-03T16:25:30.123Z,5.17
2022-11-03T16:27:56.568Z,4.67
2022-11-03T16:30:23.036Z,5.77
2022-11-03T16:32:53.106Z,6.00
2022-11-03T16:35:20.204Z,5.57
2022-11-03T16:37:46.844Z,6.18
2022-11-03T16:40:17.966Z,6.70
2022-11-03T16:42:46.163Z,7.40
2022-11-03T16:45:17.415Z,6.67
2022-11-03T16:47:44.852Z,6.43
2022-11-03T16:50:11.436Z,7.65
2022-11-03T16:52:37.945Z,7.82
2022-11-03T16:55:04.782Z,6.63
2022-11-03T16:57:31.262Z,6.97
2022-11-03T16:59:58.175Z,6.07
2022-11-03T17:02:24.879Z,7.40
2022-11-03T17:04:51.406Z,6.87
2022-11-03T17:07:17.938Z,7.13
2022-11-03T17:09:44.406Z,6.47
2022-11-03T17:12:10.831Z,6.80
2022-11-03T17:14:37.471Z,6.73
2022-11-03T17:17:03.947Z,5.93
2022-11-03T17:19:30.613Z,6.25
2022-11-03T17:21:59.564Z,5.03
2022-11-03T17:24:26.628Z,5.67
2022-11-03T17:26:53.125Z,6.23
2022-11-03T17:29:21.403Z,6.43
2022-11-03T17:31:48.164Z,4.93
2022-11-03T17:34:14.640Z,5.57
2022-11-03T17:36:41.296Z,4.93
2022-11-03T17:39:07.786Z,5.43
2022-11-03T17:41:35.102Z,6.07
2022-11-03T17:44:01.663Z,5.67
2022-11-03T17:46:28.097Z,6.03
2022-11-03T17:48:54.649Z,6.90
2022-11-03T17:51:21.096Z,7.00
2022-11-03T17:53:47.552Z,7.77
2022-11-03T17:56:31.499Z,9.23
2022-11-03T17:58:58.161Z,8.20
2022-11-03T18:01:25.162Z,8.60
2022-11-03T18:03:54.760Z,7.57
2022-11-03T18:06:21.492Z,7.70
2022-11-03T18:08:48.287Z,7.23
2022-11-03T18:11:35.147Z,6.73
2022-11-03T18:14:02.768Z,6.53
2022-11-03T18:16:29.657Z,6.90
2022-11-03T18:18:56.143Z,6.30
2022-11-03T18:21:22.615Z,6.43
2022-11-03T18:23:49.172Z,6.40
2022-11-03T18:26:22.493Z,6.83
2022-11-03T18:28:50.375Z,6.23
2022-11-03T18:31:20.267Z,6.23
2022-11-03T18:33:46.886Z,6.87
2022-11-03T18:36:14.744Z,6.47
2022-11-03T18:38:41.429Z,6.70
2022-11-03T18:41:33.415Z,7.47
2022-11-03T18:43:59.954Z,6.87
2022-11-03T18:46:26.397Z,7.10
2022-11-03T18:48:52.906Z,7.37
2022-11-03T18:51:19.451Z,6.83
2022-11-03T18:53:45.993Z,6.90
2022-11-03T18:56:18.561Z,7.03
2022-11-03T18:58:44.991Z,8.03
2022-11-03T19:01:21.754Z,6.80
2022-11-03T19:03:48.363Z,7.33
2022-11-03T19:06:14.809Z,7.03
2022-11-03T19:08:41.209Z,7.07
2022-11-03T19:11:07.646Z,7.53
2022-11-03T19:13:37.820Z,7.70
2022-11-03T19:16:07.551Z,7.97
2022-11-03T19:18:34.682Z,8.40
2022-11-03T19:21:01.156Z,7.87
2022-11-03T19:23:27.608Z,8.10
2022-11-03T19:25:56.732Z,7.70
2022-11-03T19:28:23.171Z,7.40
2022-11-03T19:30:51.896Z,8.50
2022-11-03T19:33:22.708Z,9.10
2022-11-03T19:35:49.280Z,8.67
2022-11-03T19:38:16.226Z,8.67
2022-11-03T19:41:02.691Z,9.57
2022-11-03T19:43:34.159Z,8.63
2022-11-03T19:46:01.217Z,9.25
2022-11-03T19:48:28.683Z,8.95
2022-11-03T19:50:55.444Z,8.90
2022-11-03T19:53:23.761Z,10.03
2022-11-03T19:55:50.435Z,10.80
2022-11-03T19:58:18.775Z,12.05
2022-11-03T20:00:45.538Z,11.60
2022-11-03T20:03:12.325Z,10.90
2022-11-03T20:05:39.123Z,10.25
2022-11-03T20:08:06.531Z,10.43
2022-11-03T20:10:35.821Z,8.73
2022-11-03T20:13:02.851Z,8.70
2022-11-03T20:15:30.691Z,9.27
2022-11-03T20:17:57.144Z,8.77
2022-11-03T20:20:26.752Z,9.33
2022-11-03T20:22:55.156Z,9.30
2022-11-03T20:25:23.191Z,8.30
2022-11-03T20:27:49.739Z,9.47
2022-11-03T20:30:16.919Z,9.33
2022-11-03T20:32:44.019Z,8.60
2022-11-03T20:35:13.531Z,9.50
2022-11-03T20:37:39.975Z,10.67
2022-11-03T20:40:07.787Z,9.17
2022-11-03T20:42:34.239Z,8.73
2022-11-03T20:45:00.675Z,8.67
2022-11-03T20:47:28.516Z,10.50
2022-11-03T20:49:54.993Z,9.07
2022-11-03T20:52:21.457Z,11.07
2022-11-03T20:54:47.868Z,10.53
2022-11-03T20:57:14.513Z,10.17
2022-11-03T20:59:41.507Z,10.83
2022-11-03T21:02:13.359Z,10.47
2022-11-03T21:04:40.959Z,9.70
2022-11-03T21:07:09.586Z,9.50
2022-11-03T21:09:38.267Z,10.20
2022-11-03T21:12:05.144Z,11.35
2022-11-03T21:14:31.746Z,10.97
2022-11-03T21:17:16.865Z,10.30
2022-11-03T21:19:45.526Z,10.67
2022-11-03T21:22:45.958Z,10.70
2022-11-03T21:25:28.449Z,10.87
2022-11-03T21:27:57.533Z,10.20
2022-11-03T21:30:24.524Z,9.83
2022-11-03T21:32:51.309Z,10.60
2022-11-03T21:35:19.465Z,9.67
2022-11-03T21:37:46.032Z,10.90
2022-11-03T21:40:12.591Z,9.68
2022-11-03T21:42:58.085Z,9.82
2022-11-03T21:45:24.560Z,10.18
2022-11-03T21:48:14.059Z,9.93
2022-11-03T21:50:40.994Z,10.20
2022-11-03T21:53:07.826Z,11.00
2022-11-03T21:55:34.854Z,10.80
2022-11-03T21:58:01.775Z,10.20
2022-11-03T22:00:28.874Z,9.43
2022-11-03T22:02:55.370Z,9.40
2022-11-03T22:05:21.889Z,10.73
2022-11-03T22:07:48.313Z,10.63
2022-11-03T22:10:14.775Z,11.20
2022-11-03T22:12:41.234Z,10.95
2022-11-03T22:15:26.629Z,10.37
2022-11-03T22:17:53.075Z,10.30
2022-11-03T22:20:38.230Z,10.03
2022-11-03T22:23:23.370Z,10.27
2022-11-03T22:26:08.733Z,11.93
2022-11-03T22:28:35.265Z,10.70
2022-11-03T22:31:22.727Z,12.20
2022-11-03T22:34:07.850Z,11.30
2022-11-03T22:36:34.343Z,11.20
2022-11-03T22:39:19.568Z,11.83
2022-11-03T22:42:06.482Z,10.80
2022-11-03T22:44:52.080Z,11.03
2022-11-03T22:47:18.992Z,10.43
2022-11-03T22:49:45.634Z,11.80
2022-11-03T22:52:12.091Z,10.77
2022-11-03T22:54:38.534Z,10.50
2022-11-03T22:57:05.000Z,10.40
2022-11-03T22:59:31.459Z,11.07
2022-11-03T23:01:58.084Z,10.23
2022-11-03T23:04:24.590Z,10.07
2022-11-03T23:06:51.044Z,10.43
2022-11-03T23:09:17.702Z,9.53
2022-11-03T23:11:44.117Z,10.07
2022-11-03T23:14:10.717Z,10.07
2022-11-03T23:16:40.904Z,9.70
2022-11-03T23:19:26.110Z,9.13
2022-11-03T23:21:52.829Z,9.20
2022-11-03T23:24:42.168Z,9.63
2022-11-03T23:27:11.672Z,9.13
2022-11-03T23:29:38.220Z,9.18
2022-11-03T23:32:06.982Z,9.60
2022-11-03T23:34:35.214Z,8.50
2022-11-03T23:37:01.958Z,9.27
2022-11-03T23:39:28.414Z,8.47
2022-11-03T23:41:54.835Z,9.20
2022-11-03T23:44:21.274Z,9.13
2022-11-03T23:47:06.473Z,9.05
2022-11-03T23:49:32.941Z,9.50
2022-11-03T23:51:59.397Z,8.13
2022-11-03T23:54:27.316Z,8.90
2022-11-03T23:57:12.567Z,8.77
2022-11-03T23:59:39.111Z,9.53
